Watrous, New Mexico
Current Conditions -  °F | °C
As of 11:53 PM on Thursday 30 Oct 2014 (Local Time) from KLVS Reporting Station
Clear Clear  
Wind Chill: 41°   Ceiling: Unl
Heat Index: 41°   Visibility: 10mi
Dew Point: 22°   Wind: 0mph
Humidity: 47%   Direction: NA
Pressure: 30.47"   Gusts: NA
Location:  35.79°N, 104.98°W
Report Text: KLVS 310553Z AUTO 00000KT 10SM CLR 05/M06 A3047 RMK AO2 SLP255 T00501056 10139 20044 51013
Loading
Personal Weather Stations






























Interactive Weather Map
Tropical Storm Tracking
New forecast layout! Learn more

10-Day Weather Forecast

Advertisements
Track Severe Weather on mobile